LFBHLFBL

Guest
Details From LFBH - La Rochelle Laleu
To LFBL - Limoges Bellegarde
Flight Number -
Tags generated
Created
Modified
Stats Distance 101 nm / 187 km
Max Altitude 7,000 ft / 2,134 m
Waypoints 3
Social Downloads 0
Likes 0
Share VATSIM

Download

Looking for another format? Having issues loading an existing format? Contact us
Advertisement - Login to hide

Notes

Basic altitude profile: - Ascent Rate: 2500ft/min - Ascent Speed: 180kts - Cruise Altitude: 7000ft - Cruise Speed: 200kts - Descent Rate: 1500ft/min - Descent Speed: 180kts

Route

LFBH ADILU LFBL

ID Type Via Altitude Latitude Longitude Leg Dist Tot Dist Heading (true) Name
O LFBH APT - 0 ft / 0 m 46.17924˚ -1.19641˚ - 0 nm - La Rochelle Laleu
ADILU FIX - 7,000 ft / 2,134 m 46.12417˚ -0.83944˚ 15 nm 15 nm 102° / 103° -
O LFBL APT - 0 ft / 0 m 45.86190˚ 1.18137˚ 85 nm 100 nm 100° / 101° Limoges Bellegarde

Altitude Profile

Advertisement - Login to hide

LFBH

Details ICAO LFBH (LRH)
Name La Rochelle Laleu
Region France
Timezone Europe/Paris (UTC+2.0)
Stats Elevation 74 ft / 23 m (AMSL)
Location 46.179245° -1.196410°
Runways 1
Magnetic Variation 0.245° W

METAR

LFBH 230130Z AUTO 01008KT CAVOK 16/12 Q1016

Decode

TAF

Not found

Departure Runways

ID Width Length Bearing (true) Bearing (mag) Surface Threshold Offset Overrun Length
10 148 ft / 45 m 7,383 ft / 2,250 m 92.43° 92.67° Asphalt 1,033 ft / 315 m 0 ft / 0 m
28 148 ft / 45 m 7,383 ft / 2,250 m 272.45° 272.69° Asphalt 1,532 ft / 467 m 0 ft / 0 m

LFBL

Details ICAO LFBL (LIG)
Name Limoges Bellegarde
Region France
Timezone Europe/Paris (UTC+2.0)
Stats Elevation 1,300 ft / 396 m (AMSL)
Location 45.861896° 1.181368°
Runways 1
Magnetic Variation 0.478° E

METAR

LFBL 230130Z AUTO VRB02KT CAVOK 14/11 Q1016 TEMPO 4000 BR

Decode

TAF

TAF LFBL 222300Z 2300/2324 VRB03KT CAVOK PROB30 TEMPO 2303/2306 4000 BR BECMG 2310/2312 SCT035TCU TEMPO 2312/2316 4000 SHRA SCT040CB PROB30 TEMPO 2312/2315 -TSRA BKN040CB

Decode

Destination Runways

ID Width Length Bearing (true) Bearing (mag) Surface Threshold Offset Overrun Length
03 148 ft / 45 m 8,202 ft / 2,500 m 33.16° 32.68° Asphalt 0 ft / 0 m 0 ft / 0 m
21 148 ft / 45 m 8,202 ft / 2,500 m 213.18° 212.70° Asphalt 196 ft / 60 m 0 ft / 0 m

Approach Navaids

Runway Type Ident Frequency Range Bearing (true) Bearing (mag) Slope Elevation
03 Localiser LG 109.29 MHz 18 nm / 33 km 33.10° 32.62° - 1,299 ft / 396 m (AMSL)
03 Glidescope LG 109.29 MHz 10 nm / 19 km 33.17° 32.69° 3.00° 1,299 ft / 396 m (AMSL)
21 Localiser LG 110.10 MHz 18 nm / 33 km 213.16° 212.68° - 1,271 ft / 387 m (AMSL)
21 Glidescope LG 110.10 MHz 10 nm / 19 km 213.17° 212.69° 3.00° 1,271 ft / 387 m (AMSL)
21 DME LG 110.10 MHz 18 nm / 33 km - - - 1,340 ft / 408 m (AMSL)

Popular Alternatives